Wynoose, Illinois
Current Conditions -  °F | °C
As of 11:55 AM on Thursday 18 Dec 2014 (Local Time) from KOLY Reporting Station
Overcast Overcast  
Wind Chill: 30°   Ceiling: 1400
Heat Index: 30°   Visibility: 7mi
Dew Point: 25°   Wind: 3mph
Humidity: 80%   Direction: 330°NNW
Pressure: 30.29"   Gusts: NA
Location:  38.7177°N, 88.2112°W
Report Text: KOLY 181755Z AUTO 33003KT 7SM BKN014 OVC060 M01/M04 A3029 RMK AO2
Loading
Personal Weather Stations






























Interactive Weather Map New forecast layout! Learn more

10-Day Weather Forecast

Advertisements
Track Severe Weather on mobile